createdAt,value
2019-05-14T00:00:26.620Z,1.80
2019-05-14T00:03:51.444Z,1.70
2019-05-14T00:07:13.538Z,2.00
2019-05-14T00:10:35.804Z,1.80
2019-05-14T00:13:57.858Z,1.77
2019-05-14T00:17:21.448Z,1.83
2019-05-14T00:20:44.058Z,1.60
2019-05-14T00:24:06.749Z,2.20
2019-05-14T00:27:31.058Z,1.80
2019-05-14T00:30:53.393Z,2.20
2019-05-14T00:34:15.771Z,1.67
2019-05-14T00:37:37.922Z,1.90
2019-05-14T00:41:01.977Z,1.73
2019-05-14T00:44:24.354Z,2.00
2019-05-14T00:47:46.728Z,1.87
2019-05-14T00:51:11.089Z,1.70
2019-05-14T00:54:33.571Z,1.43
2019-05-14T00:57:55.951Z,1.97
2019-05-14T01:01:21.339Z,2.27
2019-05-14T01:04:43.054Z,1.70
2019-05-14T01:08:05.662Z,1.80
2019-05-14T01:11:28.371Z,2.27
2019-05-14T01:14:52.846Z,1.80
2019-05-14T01:18:14.654Z,1.80
2019-05-14T01:21:37.203Z,1.87
2019-05-14T01:25:01.441Z,1.57
2019-05-14T01:28:23.478Z,1.90
2019-05-14T01:31:45.882Z,2.10
2019-05-14T01:35:08.766Z,1.83
2019-05-14T01:38:31.564Z,1.90
2019-05-14T01:41:53.970Z,1.47
2019-05-14T01:45:25.113Z,1.90
2019-05-14T01:48:41.744Z,1.80
2019-05-14T01:52:04.706Z,1.50
2019-05-14T01:55:27.438Z,1.57
2019-05-14T01:58:52.083Z,1.80
2019-05-14T02:02:14.045Z,1.67
2019-05-14T02:05:36.432Z,1.83
2019-05-14T02:08:58.723Z,1.70
2019-05-14T02:12:22.374Z,1.70
2019-05-14T02:15:45.000Z,1.83
2019-05-14T02:19:07.861Z,1.43
2019-05-14T02:22:32.039Z,1.83
2019-05-14T02:25:55.010Z,1.67
2019-05-14T02:29:17.620Z,1.60
2019-05-14T02:32:40.725Z,1.70
2019-05-14T02:36:03.563Z,1.63
2019-05-14T02:39:29.006Z,2.20
2019-05-14T02:42:50.301Z,1.87
2019-05-14T02:46:17.190Z,2.00
2019-05-14T02:49:59.040Z,1.90
2019-05-14T02:53:20.483Z,1.90
2019-05-14T02:56:42.893Z,1.90
2019-05-14T03:00:05.766Z,2.03
2019-05-14T03:03:29.899Z,2.37
2019-05-14T03:06:52.221Z,2.17
2019-05-14T03:10:15.302Z,2.10
2019-05-14T03:13:40.071Z,2.30
2019-05-14T03:17:01.713Z,2.00
2019-05-14T03:20:24.225Z,2.30
2019-05-14T03:23:49.368Z,2.30
2019-05-14T03:27:10.794Z,2.20
2019-05-14T03:30:33.379Z,2.57
2019-05-14T03:34:01.999Z,2.10
2019-05-14T03:37:23.707Z,2.10
2019-05-14T03:40:44.629Z,2.10
2019-05-14T03:44:09.851Z,2.60
2019-05-14T03:47:31.252Z,2.50
2019-05-14T03:50:53.753Z,2.37
2019-05-14T03:54:19.235Z,2.03
2019-05-14T03:57:40.948Z,2.50
2019-05-14T04:01:03.451Z,2.50
2019-05-14T04:04:29.663Z,2.30
2019-05-14T04:07:51.150Z,2.20
2019-05-14T04:11:19.832Z,2.30
2019-05-14T04:14:42.821Z,2.30
2019-05-14T04:18:05.204Z,3.00
2019-05-14T04:21:29.722Z,2.70
2019-05-14T04:24:55.176Z,2.63
2019-05-14T04:28:19.527Z,2.30
2019-05-14T04:31:44.551Z,2.30
2019-05-14T04:35:09.547Z,2.30
2019-05-14T04:38:31.009Z,2.43
2019-05-14T04:41:53.468Z,2.50
2019-05-14T04:45:19.424Z,2.23
2019-05-14T04:48:43.652Z,2.40
2019-05-14T04:52:04.280Z,2.40
2019-05-14T04:55:29.725Z,2.70
2019-05-14T04:58:50.637Z,2.20
2019-05-14T05:02:13.217Z,2.37
2019-05-14T05:05:35.700Z,2.80
2019-05-14T05:09:00.094Z,2.40
2019-05-14T05:12:22.055Z,2.20
2019-05-14T05:15:44.222Z,2.30
2019-05-14T05:19:06.855Z,2.80
2019-05-14T05:22:29.371Z,2.70
2019-05-14T05:25:51.788Z,2.20
2019-05-14T05:29:14.668Z,2.57
2019-05-14T05:32:38.907Z,2.67
2019-05-14T05:36:01.380Z,2.47
2019-05-14T05:39:24.212Z,2.70
2019-05-14T05:42:49.022Z,2.90
2019-05-14T05:46:11.117Z,2.57
2019-05-14T05:49:33.992Z,2.30
2019-05-14T05:52:58.533Z,2.33
2019-05-14T05:56:21.128Z,2.43
2019-05-14T05:59:43.536Z,3.03
2019-05-14T06:03:10.242Z,2.50
2019-05-14T06:06:30.328Z,2.70
2019-05-14T06:09:52.937Z,2.50
2019-05-14T06:13:18.121Z,2.63
2019-05-14T06:16:39.886Z,3.07
2019-05-14T06:20:02.369Z,2.93
2019-05-14T06:23:25.040Z,2.80
2019-05-14T06:26:49.029Z,2.40
2019-05-14T06:30:12.517Z,2.93
2019-05-14T06:33:35.161Z,1.97
2019-05-14T06:36:59.146Z,2.50
2019-05-14T06:40:21.577Z,2.50
2019-05-14T06:43:44.057Z,3.27
2019-05-14T06:47:09.093Z,2.83
2019-05-14T06:50:30.915Z,2.87
2019-05-14T06:53:53.435Z,2.80
2019-05-14T06:57:18.037Z,2.60
2019-05-14T07:00:40.461Z,2.53
2019-05-14T07:04:02.755Z,2.63
2019-05-14T07:07:25.588Z,2.70
2019-05-14T07:10:48.695Z,3.07
2019-05-14T07:14:11.673Z,2.67
2019-05-14T07:17:34.414Z,3.30
2019-05-14T07:20:58.874Z,2.57
2019-05-14T07:24:21.589Z,2.70
2019-05-14T07:27:43.875Z,2.70
2019-05-14T07:31:09.528Z,2.90
2019-05-14T07:34:30.932Z,2.60
2019-05-14T07:37:53.726Z,2.83
2019-05-14T07:41:18.986Z,2.63
2019-05-14T07:44:40.426Z,2.73
2019-05-14T07:48:02.990Z,2.63
2019-05-14T07:51:28.086Z,2.23
2019-05-14T07:54:49.875Z,2.30
2019-05-14T07:58:12.411Z,2.30
2019-05-14T08:01:35.130Z,2.77
2019-05-14T08:04:58.086Z,2.23
2019-05-14T08:08:20.659Z,2.50
2019-05-14T08:11:43.157Z,1.70
2019-05-14T08:15:15.305Z,1.77
2019-05-14T08:18:30.532Z,2.13
2019-05-14T08:21:53.407Z,3.17
2019-05-14T08:25:16.090Z,2.17
2019-05-14T08:28:38.750Z,1.90
2019-05-14T08:32:01.526Z,1.80
2019-05-14T08:35:24.057Z,1.40
2019-05-14T08:38:49.639Z,1.97
2019-05-14T08:42:10.838Z,1.60
2019-05-14T08:45:33.405Z,1.60
2019-05-14T08:48:58.376Z,1.60
2019-05-14T08:52:19.891Z,1.90
2019-05-14T08:55:42.207Z,1.70
2019-05-14T08:59:04.830Z,1.60
2019-05-14T09:02:28.674Z,2.47
2019-05-14T09:05:51.037Z,1.97
2019-05-14T09:09:13.430Z,2.07
2019-05-14T09:12:35.933Z,1.63
2019-05-14T09:15:58.499Z,1.80
2019-05-14T09:19:21.182Z,2.03
2019-05-14T09:22:43.828Z,1.60
2019-05-14T09:26:09.311Z,1.83
2019-05-14T09:29:30.372Z,1.80
2019-05-14T09:32:52.743Z,1.90
2019-05-14T09:36:22.647Z,1.70
2019-05-14T09:39:39.119Z,1.63
2019-05-14T09:43:01.374Z,2.10
2019-05-14T09:46:23.718Z,1.60
2019-05-14T09:49:45.705Z,1.70
2019-05-14T09:53:09.737Z,1.70
2019-05-14T09:56:32.414Z,1.43
2019-05-14T09:59:54.758Z,1.60
2019-05-14T10:03:19.232Z,1.53
2019-05-14T10:06:41.328Z,1.90
2019-05-14T10:10:04.956Z,2.00
2019-05-14T10:13:28.253Z,1.73
2019-05-14T10:16:50.641Z,1.87
2019-05-14T10:20:13.862Z,1.60
2019-05-14T10:23:35.868Z,1.53
2019-05-14T10:26:58.643Z,1.50
2019-05-14T10:30:21.799Z,1.83
2019-05-14T10:33:43.962Z,1.57
2019-05-14T10:37:08.584Z,1.80
2019-05-14T10:40:30.403Z,1.43
2019-05-14T10:43:52.874Z,1.53
2019-05-14T10:47:15.340Z,2.70
2019-05-14T10:50:55.771Z,1.77
2019-05-14T10:54:16.886Z,1.37
2019-05-14T10:57:26.245Z,1.40
2019-05-14T11:00:49.460Z,1.30
2019-05-14T11:04:12.102Z,1.53
2019-05-14T11:07:34.487Z,1.67
2019-05-14T11:11:03.205Z,1.50
2019-05-14T11:14:20.853Z,1.70
2019-05-14T11:17:43.554Z,1.50
2019-05-14T11:21:21.501Z,1.50
2019-05-14T11:24:29.977Z,1.80
2019-05-14T11:27:52.588Z,1.63
2019-05-14T11:31:15.384Z,1.60
2019-05-14T11:34:39.079Z,1.70
2019-05-14T11:38:01.874Z,1.30
2019-05-14T11:41:24.464Z,1.47
2019-05-14T11:44:48.833Z,1.10
2019-05-14T11:48:10.894Z,1.90
2019-05-14T11:51:58.807Z,1.60
2019-05-14T11:54:58.537Z,2.70
2019-05-14T11:58:21.622Z,1.70
2019-05-14T12:01:44.239Z,1.70
2019-05-14T12:05:08.813Z,1.70
2019-05-14T12:08:31.414Z,1.40
2019-05-14T12:11:53.887Z,1.50
2019-05-14T12:15:18.743Z,1.50
2019-05-14T12:18:41.788Z,1.53
2019-05-14T12:22:10.324Z,1.33
2019-05-14T12:25:29.421Z,1.60
2019-05-14T12:28:52.116Z,1.43
2019-05-14T12:32:14.378Z,1.67
2019-05-14T12:35:39.967Z,2.10
2019-05-14T12:39:00.623Z,1.70
2019-05-14T12:42:23.408Z,2.10
2019-05-14T12:45:46.218Z,1.67
2019-05-14T12:49:11.595Z,1.60
2019-05-14T12:52:33.099Z,1.50
2019-05-14T12:55:55.552Z,1.93
2019-05-14T12:59:17.600Z,1.80
2019-05-14T13:02:40.038Z,1.80
2019-05-14T13:06:02.645Z,1.50
2019-05-14T13:09:25.034Z,1.67
2019-05-14T13:12:48.414Z,1.30
2019-05-14T13:16:10.778Z,1.80
2019-05-14T13:19:33.579Z,1.43
2019-05-14T13:22:56.083Z,1.63
2019-05-14T13:26:19.198Z,2.00
2019-05-14T13:29:42.144Z,1.67
2019-05-14T13:33:04.673Z,1.47
2019-05-14T13:36:28.790Z,1.40
2019-05-14T13:39:53.087Z,1.40
2019-05-14T13:43:15.321Z,1.60
2019-05-14T13:46:38.151Z,1.40
2019-05-14T13:50:00.734Z,1.80
2019-05-14T13:53:23.650Z,1.47
2019-05-14T13:56:48.264Z,1.30
2019-05-14T14:00:12.183Z,1.63
2019-05-14T14:03:34.721Z,1.40
2019-05-14T14:06:59.049Z,1.10
2019-05-14T14:10:21.417Z,1.57
2019-05-14T14:13:43.838Z,1.37
2019-05-14T14:17:06.388Z,1.13
2019-05-14T14:20:29.237Z,1.50
2019-05-14T14:23:51.989Z,1.60
2019-05-14T14:27:14.966Z,1.37
2019-05-14T14:30:39.465Z,1.50
2019-05-14T14:34:01.993Z,1.30
2019-05-14T14:37:24.652Z,1.33
2019-05-14T14:40:48.626Z,1.40
2019-05-14T14:44:11.335Z,1.50
2019-05-14T14:47:33.756Z,1.80
2019-05-14T14:50:58.641Z,1.43
2019-05-14T14:54:21.181Z,1.80
2019-05-14T14:57:45.813Z,1.60
2019-05-14T15:01:08.840Z,1.30
2019-05-14T15:04:31.620Z,1.40
2019-05-14T15:07:53.758Z,1.23
2019-05-14T15:11:16.375Z,1.67
2019-05-14T15:14:39.701Z,1.37
2019-05-14T15:18:02.609Z,1.47
2019-05-14T15:21:25.123Z,1.00
2019-05-14T15:24:49.159Z,1.17
2019-05-14T15:28:11.676Z,1.73
2019-05-14T15:31:34.550Z,2.23
2019-05-14T15:34:59.321Z,1.83
2019-05-14T15:38:21.535Z,1.37
2019-05-14T15:41:43.925Z,1.33
2019-05-14T15:45:09.173Z,1.37
2019-05-14T15:48:30.692Z,1.50
2019-05-14T15:51:53.469Z,1.60
2019-05-14T15:55:18.151Z,1.10
2019-05-14T15:58:40.174Z,1.20
2019-05-14T16:02:02.610Z,1.20
2019-05-14T16:05:25.390Z,1.43
2019-05-14T16:08:48.841Z,1.80
2019-05-14T16:12:11.509Z,1.43
2019-05-14T16:15:34.371Z,1.70
2019-05-14T16:18:56.740Z,1.40
2019-05-14T16:22:19.614Z,1.80
2019-05-14T16:25:41.900Z,1.60
2019-05-14T16:29:04.614Z,0.97
2019-05-14T16:32:28.486Z,1.27
2019-05-14T16:35:50.722Z,1.30
2019-05-14T16:39:13.514Z,1.20
2019-05-14T16:42:35.969Z,1.30
2019-05-14T16:45:59.726Z,1.67
2019-05-14T16:49:22.519Z,1.40
2019-05-14T16:52:44.811Z,1.40
2019-05-14T16:56:08.154Z,1.70
2019-05-14T16:59:30.832Z,1.70
2019-05-14T17:02:53.502Z,1.50
2019-05-14T17:06:18.541Z,1.33
2019-05-14T17:09:39.836Z,1.80
2019-05-14T17:13:02.524Z,1.40
2019-05-14T17:16:28.745Z,1.50
2019-05-14T17:19:49.984Z,1.43
2019-05-14T17:23:12.589Z,1.60
2019-05-14T17:26:35.075Z,1.23
2019-05-14T17:29:58.991Z,1.30
2019-05-14T17:33:21.200Z,1.80
2019-05-14T17:36:43.590Z,1.20
2019-05-14T17:40:09.136Z,1.63
2019-05-14T17:43:30.758Z,1.50
2019-05-14T17:46:53.329Z,1.50
2019-05-14T17:50:18.324Z,1.90
2019-05-14T17:53:40.680Z,1.70
2019-05-14T17:57:02.822Z,1.53
2019-05-14T18:00:25.476Z,3.20
2019-05-14T18:03:49.128Z,2.53
2019-05-14T18:07:12.189Z,1.20
2019-05-14T18:10:34.964Z,1.87
2019-05-14T18:13:59.001Z,1.70
2019-05-14T18:17:21.750Z,1.60
2019-05-14T18:20:43.945Z,1.80
2019-05-14T18:24:06.294Z,2.20
2019-05-14T18:27:29.320Z,2.07
2019-05-14T18:30:52.150Z,1.93
2019-05-14T18:34:14.609Z,2.00
2019-05-14T18:37:38.796Z,1.90
2019-05-14T18:41:01.658Z,1.70
2019-05-14T18:44:24.083Z,1.50
2019-05-14T18:47:48.522Z,2.00
2019-05-14T18:51:10.540Z,1.90
2019-05-14T18:54:33.010Z,1.80
2019-05-14T18:57:55.179Z,1.77
2019-05-14T19:01:19.661Z,1.50
2019-05-14T19:04:41.738Z,2.20
2019-05-14T19:08:04.417Z,4.60
2019-05-14T19:11:28.062Z,1.70
2019-05-14T19:14:50.699Z,2.00
2019-05-14T19:18:13.251Z,1.90
2019-05-14T19:21:38.074Z,1.33
2019-05-14T19:24:59.708Z,2.17
2019-05-14T19:28:22.299Z,1.77
2019-05-14T19:31:44.703Z,1.50
2019-05-14T19:35:08.629Z,2.00
2019-05-14T19:38:31.397Z,1.50
2019-05-14T19:41:54.020Z,1.33
2019-05-14T19:45:16.887Z,1.70
2019-05-14T19:48:39.522Z,1.70
2019-05-14T19:52:01.879Z,1.60
2019-05-14T19:55:24.249Z,1.63
2019-05-14T19:58:46.666Z,1.50
2019-05-14T20:02:09.620Z,1.40
2019-05-14T20:05:32.368Z,1.60
2019-05-14T20:08:54.634Z,1.73
2019-05-14T20:12:18.217Z,1.53
2019-05-14T20:15:41.065Z,1.70
2019-05-14T20:19:03.701Z,1.60
2019-05-14T20:22:28.416Z,1.50
2019-05-14T20:25:50.393Z,1.50
2019-05-14T20:29:12.581Z,1.40
2019-05-14T20:32:35.453Z,1.30
2019-05-14T20:35:59.161Z,1.60
2019-05-14T20:39:21.467Z,1.80
2019-05-14T20:42:44.050Z,1.93
2019-05-14T20:46:06.957Z,1.60
2019-05-14T20:49:29.606Z,1.70
2019-05-14T20:52:51.840Z,1.47
2019-05-14T20:56:13.974Z,1.50
2019-05-14T20:59:38.740Z,1.40
2019-05-14T21:03:00.486Z,1.70
2019-05-14T21:06:22.799Z,1.40
2019-05-14T21:09:45.069Z,1.90
2019-05-14T21:13:08.709Z,1.57
2019-05-14T21:16:31.486Z,1.70
2019-05-14T21:19:53.850Z,1.50
2019-05-14T21:23:18.208Z,2.40
2019-05-14T21:26:40.350Z,1.90
2019-05-14T21:30:02.613Z,1.70
2019-05-14T21:33:25.220Z,1.67
2019-05-14T21:36:47.373Z,1.63
2019-05-14T21:40:10.043Z,1.90
2019-05-14T21:43:32.116Z,2.07
2019-05-14T21:46:54.704Z,1.90
2019-05-14T21:50:18.110Z,1.63
2019-05-14T21:53:41.232Z,1.90
2019-05-14T21:57:03.567Z,1.87
2019-05-14T22:00:35.099Z,1.80
2019-05-14T22:03:59.271Z,1.70
2019-05-14T22:07:22.048Z,1.60
2019-05-14T22:10:44.545Z,1.90
2019-05-14T22:14:07.864Z,1.73
2019-05-14T22:17:30.742Z,1.50
2019-05-14T22:20:53.108Z,1.73
2019-05-14T22:24:15.595Z,1.80
2019-05-14T22:27:39.327Z,1.80
2019-05-14T22:31:01.777Z,1.70
2019-05-14T22:34:24.220Z,1.70
2019-05-14T22:37:48.256Z,1.70
2019-05-14T22:41:11.508Z,1.37
2019-05-14T22:44:34.419Z,1.43
2019-05-14T22:47:58.866Z,1.60
2019-05-14T22:51:20.949Z,1.50
2019-05-14T22:54:43.305Z,1.90
2019-05-14T22:58:05.806Z,1.60
2019-05-14T23:01:28.946Z,1.50
2019-05-14T23:04:51.236Z,1.50
2019-05-14T23:08:13.829Z,1.60
2019-05-14T23:11:38.443Z,1.60
2019-05-14T23:15:00.200Z,1.87
2019-05-14T23:18:22.559Z,1.50
2019-05-14T23:21:44.955Z,1.60
2019-05-14T23:25:08.929Z,1.77
2019-05-14T23:28:41.927Z,1.67
2019-05-14T23:31:55.852Z,1.47
2019-05-14T23:35:18.831Z,1.43
2019-05-14T23:38:41.735Z,1.80
2019-05-14T23:42:04.375Z,1.70
2019-05-14T23:45:28.413Z,2.10
2019-05-14T23:48:51.125Z,1.57
2019-05-14T23:52:13.389Z,1.77
2019-05-14T23:55:38.365Z,1.73
2019-05-14T23:59:02.106Z,1.60
